Mystic Whaler — WCT9937 — position and weather

sailwx.info

Track history (hours):
 
Tides and Currents Weather Stations Pressure Air Temp Water Temp Dewpoint Dewpoint Depression Visibility Wind Speed Wind Dir Waves Ship Positions

Mystic Whaler (United States)

Ship's website: http://www.mysticwhalercruises.com/

Owner: MYSTIC WHALER CRUISES INC, MYSTIC, CT. More information available from US FCC via Universal Licensing System and Coast Guard Vessel Documentation Center.

Last reported at 2017-May-28 07:59 UTC. Time now 2017-May-28 08:22 UTC.
Position N 40°47' W 073°59'.

Length 34 m; draft 1.8 m.

Type: Sailing vessel. MMSI: 367048590.

Date/timePositionNaut miles runAvg speedWind from/ knotsBaromVisibWave heightAir tempDewpointWater temp
2017-May-28 07:59N 40°47' W 073°59'0 0.0
2017-May-28 07:29N 40°47' W 073°59'0 0.0
2017-May-28 06:59N 40°47' W 073°59'0 0.0
2017-May-28 06:29N 40°47' W 073°59'0 0.0
2017-May-28 05:59N 40°47' W 073°59'0 0.0
2017-May-28 05:29N 40°47' W 073°59'0 0.0
2017-May-28 04:59N 40°47' W 073°59'0 0.0
2017-May-28 04:29N 40°47' W 073°59'0 0.0
2017-May-28 03:50N 40°47' W 073°59'0 0.0
2017-May-28 03:29N 40°47' W 073°59'0 0.0
2017-May-28 02:59N 40°47' W 073°59'0 0.0
2017-May-28 02:29N 40°47' W 073°59'0 0.0
2017-May-28 01:59N 40°47' W 073°59'0 0.0
2017-May-28 01:29N 40°47' W 073°59'0 0.0
2017-May-28 00:59N 40°47' W 073°59'0 0.0
2017-May-28 00:29N 40°47' W 073°59'0 0.0
2017-May-27 23:59N 40°47' W 073°59'0 0.0
2017-May-27 23:29N 40°47' W 073°59'0 0.0
2017-May-27 22:59N 40°47' W 073°59'0 0.0
2017-May-27 22:29N 40°47' W 073°59'0 0.0
2017-May-27 21:59N 40°47' W 073°59'0 0.0
2017-May-27 21:29N 40°47' W 073°59'0 0.0
2017-May-27 20:59N 40°47' W 073°59'0 0.0
2017-May-27 20:29N 40°47' W 073°59'0 0.5
2017-May-27 19:59N 40°47' W 073°59'0 0.4
2017-May-27 19:30N 40°47' W 073°59'2 3.3
2017-May-27 18:59N 40°49' W 073°58'2 3.3
2017-May-27 18:30N 40°50' W 073°57'2 2.7
2017-May-27 17:57N 40°52' W 073°57'1 2.1
2017-May-27 17:30N 40°52' W 073°56'0 0.5
2017-May-27 16:35N 40°53' W 073°57'0 1.9
2017-May-27 16:28N 40°53' W 073°57'1 2.2
2017-May-27 15:59N 40°52' W 073°57'2 3.9
2017-May-27 15:30N 40°50' W 073°58'3 5.4
2017-May-27 15:00N 40°47' W 073°59'0 0.0
2017-May-27 14:30N 40°47' W 073°59'0 0.0
2017-May-27 13:30N 40°47' W 073°59'0 0.0
2017-May-27 13:00N 40°47' W 073°59'0 0.0
2017-May-27 12:30N 40°47' W 073°59'0 0.0
2017-May-27 12:00N 40°47' W 073°59'0 0.0
2017-May-27 11:30N 40°47' W 073°59'0 0.0
2017-May-27 11:00N 40°47' W 073°59'0 0.0
2017-May-27 10:24N 40°47' W 073°59'0 0.0
2017-May-27 09:57N 40°47' W 073°59'0 0.0
2017-May-27 09:30N 40°47' W 073°59'0 0.0
2017-May-27 09:00N 40°47' W 073°59'0 0.0
2017-May-27 08:30N 40°47' W 073°59'0 0.0
2017-May-27 08:00N 40°47' W 073°59'0 0.0
2017-May-27 07:30N 40°47' W 073°59'0 0.0
2017-May-27 07:00N 40°47' W 073°59'0 0.0
2017-May-27 06:30N 40°47' W 073°59'0 0.0
2017-May-27 06:00N 40°47' W 073°59'0 0.0
2017-May-27 05:30N 40°47' W 073°59'0 0.0
2017-May-27 05:00N 40°47' W 073°59'0 0.0
2017-May-27 04:24N 40°47' W 073°59'0 0.0
2017-May-27 04:00N 40°47' W 073°59'0 0.0
2017-May-27 03:30N 40°47' W 073°59'0 0.0
2017-May-27 03:00N 40°47' W 073°59'0 0.0
2017-May-27 02:30N 40°47' W 073°59'0 0.0
2017-May-27 02:00N 40°47' W 073°59'0 0.0
2017-May-27 01:30N 40°47' W 073°59'0 0.0
2017-May-27 00:54N 40°47' W 073°59'0 0.0
2017-May-27 00:30N 40°47' W 073°59'0 0.0
2017-May-27 00:00N 40°47' W 073°59'0 0.0
2017-May-26 23:30N 40°47' W 073°59'0 0.0
2017-May-26 23:00N 40°47' W 073°59'0 0.0
2017-May-26 22:30N 40°47' W 073°59'0 0.0
2017-May-26 22:00N 40°47' W 073°59'0 0.0
2017-May-26 21:24N 40°47' W 073°59'0 0.0
2017-May-26 20:54N 40°47' W 073°59'0 0.0
2017-May-26 20:30N 40°47' W 073°59'0 0.0
2017-May-26 20:00N 40°47' W 073°59'0 0.0
2017-May-26 19:30N 40°47' W 073°59'0 0.0
2017-May-26 18:57N 40°47' W 073°59'1 2.8
2017-May-26 18:30N 40°48' W 073°59'1 2.2
2017-May-26 18:00N 40°47' W 073°59'0 0.7
2017-May-26 17:27N 40°47' W 073°59'0 0.0
2017-May-26 17:00N 40°47' W 073°59'0 0.0
2017-May-26 16:30N 40°47' W 073°59'0 0.0
2017-May-26 16:00N 40°47' W 073°59'0 0.6
2017-May-26 15:30N 40°47' W 073°59'0 0.1
2017-May-26 14:59N 40°47' W 073°59'1 2.4
2017-May-26 14:30N 40°47' W 074°00'1 0.9
2017-May-26 13:28N 40°47' W 073°59'0 0.0
2017-May-26 12:58N 40°47' W 073°59'0 0.0
2017-May-26 12:28N 40°47' W 073°59'0 0.0
2017-May-26 11:58N 40°47' W 073°59'0 0.0
2017-May-26 11:28N 40°47' W 073°59'0 0.0
2017-May-26 10:52N 40°47' W 073°59'0 0.0
2017-May-26 10:28N 40°47' W 073°59'0 0.0
2017-May-26 09:58N 40°47' W 073°59'0 0.0
2017-May-26 09:28N 40°47' W 073°59'0 0.0
2017-May-26 08:58N 40°47' W 073°59'0 0.0
2017-May-26 08:25N 40°47' W 073°59'0 0.0
2017-May-26 07:58N 40°47' W 073°59'0 0.0
2017-May-26 07:28N 40°47' W 073°59'0 0.0
2017-May-26 06:58N 40°47' W 073°59'0 0.0
2017-May-26 06:28N 40°47' W 073°59'0 0.0
2017-May-26 05:58N 40°47' W 073°59'0 0.0
2017-May-26 05:28N 40°47' W 073°59'0 0.0
2017-May-26 04:58N 40°47' W 073°59'0 0.0
2017-May-26 04:28N 40°47' W 073°59'0 0.0
2017-May-26 03:58N 40°47' W 073°59'0 0.0
2017-May-26 03:28N 40°47' W 073°59'0 0.0
2017-May-26 02:58N 40°47' W 073°59'0 0.0
2017-May-26 02:28N 40°47' W 073°59'0 0.0
2017-May-26 01:58N 40°47' W 073°59'0 0.0
2017-May-26 01:28N 40°47' W 073°59'0 0.0
2017-May-26 00:58N 40°47' W 073°59'0 0.0
2017-May-26 00:28N 40°47' W 073°59'0 0.0
2017-May-25 23:58N 40°47' W 073°59'0 0.0
2017-May-25 23:28N 40°47' W 073°59'0 0.0
2017-May-25 22:58N 40°47' W 073°59'0 0.0
2017-May-25 22:25N 40°47' W 073°59'0 0.0
2017-May-25 21:58N 40°47' W 073°59'0 0.0
2017-May-25 21:28N 40°47' W 073°59'0 0.0
2017-May-25 20:58N 40°47' W 073°59'0 0.0
2017-May-25 20:28N 40°47' W 073°59'0 0.0
2017-May-25 19:58N 40°47' W 073°59'1 1.6
2017-May-25 19:30N 40°48' W 073°59'0 0.0
2017-May-25 19:00N 40°48' W 073°59'0 0.0
2017-May-25 18:30N 40°48' W 073°59'0 0.0
2017-May-25 18:00N 40°48' W 073°59'1 1.2
2017-May-25 17:24N 40°47' W 073°59'0 0.0
2017-May-25 17:00N 40°47' W 073°59'0 0.0
2017-May-25 16:30N 40°47' W 073°59'0 0.0
2017-May-25 16:00N 40°47' W 073°59'1 1.0
2017-May-25 15:30N 40°47' W 073°60'1 2.0
2017-May-25 14:59N 40°48' W 073°59'0 0.2
2017-May-25 13:59N 40°48' W 073°59'1 1.4
2017-May-25 13:29N 40°47' W 073°59'0 0.0
2017-May-25 12:56N 40°47' W 073°59'0 0.0
2017-May-25 12:29N 40°47' W 073°59'0 0.0
2017-May-25 11:59N 40°47' W 073°59'0 0.0
2017-May-25 11:26N 40°47' W 073°59'0 0.0
2017-May-25 10:59N 40°47' W 073°59'0 0.0
2017-May-25 10:29N 40°47' W 073°59'0 0.0
2017-May-25 09:59N 40°47' W 073°59'0 0.0
2017-May-25 09:26N 40°47' W 073°59'0 0.0
2017-May-25 08:59N 40°47' W 073°59'0 0.0
2017-May-25 08:29N 40°47' W 073°59'0 0.0
2017-May-25 07:59N 40°47' W 073°59'0 0.0
2017-May-25 07:29N 40°47' W 073°59'0 0.0
2017-May-25 06:59N 40°47' W 073°59'0 0.0
2017-May-25 06:29N 40°47' W 073°59'0 0.0
2017-May-25 05:59N 40°47' W 073°59'0 0.0
2017-May-25 05:29N 40°47' W 073°59'0 0.0
2017-May-25 04:59N 40°47' W 073°59'0 0.0
2017-May-25 04:26N 40°47' W 073°59'0 0.0
2017-May-25 03:59N 40°47' W 073°59'0 0.0
2017-May-25 03:29N 40°47' W 073°59'0 0.0
2017-May-25 02:59N 40°47' W 073°59'0 0.0
2017-May-25 02:29N 40°47' W 073°59'0 0.0
2017-May-25 01:56N 40°47' W 073°59'0 0.0
2017-May-25 01:29N 40°47' W 073°59'0 0.0
2017-May-25 00:59N 40°47' W 073°59'0 0.0
2017-May-25 00:29N 40°47' W 073°59'0 0.0
2017-May-24 23:53N 40°47' W 073°59'0 0.0
2017-May-24 23:29N 40°47' W 073°59'0 0.0
2017-May-24 22:59N 40°47' W 073°59'0 0.0
2017-May-24 22:29N 40°47' W 073°59'0 0.0
2017-May-24 21:56N 40°47' W 073°59'0 0.0
2017-May-24 21:29N 40°47' W 073°59'0 0.0
2017-May-24 20:59N 40°47' W 073°59'0 0.0
2017-May-24 20:29N 40°47' W 073°59'0 0.0
2017-May-24 19:59N 40°47' W 073°59'0 0.0
2017-May-24 19:23N 40°47' W 073°59'0 0.0
2017-May-24 18:56N 40°47' W 073°59'0 0.0
2017-May-24 18:29N 40°47' W 073°59'0 0.0
2017-May-24 17:59N 40°47' W 073°59'1 2.9
2017-May-24 17:29N 40°49' W 073°58'0 0.6
2017-May-24 16:58N 40°48' W 073°58'1 2.4
2017-May-24 16:30N 40°47' W 073°59'0 0.0
2017-May-24 16:00N 40°47' W 073°59'0 0.0
2017-May-24 15:30N 40°47' W 073°59'0 0.0
2017-May-24 14:57N 40°47' W 073°59'0 0.3
2017-May-24 14:29N 40°47' W 073°59'0 0.1
2017-May-24 13:29N 40°47' W 073°59'0 0.0
2017-May-24 12:56N 40°47' W 073°59'0 0.0
2017-May-24 12:29N 40°47' W 073°59'0 0.0
2017-May-24 11:59N 40°47' W 073°59'0 0.0
2017-May-24 11:29N 40°47' W 073°59'0 0.0
2017-May-24 10:59N 40°47' W 073°59'0 0.0
2017-May-24 10:29N 40°47' W 073°59'0 0.0
2017-May-24 09:59N 40°47' W 073°59'0 0.0
2017-May-24 09:29N 40°47' W 073°59'0 0.0
2017-May-24 08:59N 40°47' W 073°59'0 0.0
2017-May-24 08:29N 40°47' W 073°59'0 0.0
2017-May-24 07:56N 40°47' W 073°59'0 0.0
2017-May-24 07:29N 40°47' W 073°59'0 0.0
2017-May-24 06:59N 40°47' W 073°59'0 0.0
2017-May-24 06:29N 40°47' W 073°59'0 0.0
2017-May-24 05:56N 40°47' W 073°59'0 0.0
2017-May-24 05:29N 40°47' W 073°59'0 0.0
2017-May-24 04:59N 40°47' W 073°59'0 0.0
2017-May-24 04:29N 40°47' W 073°59'0 0.0
2017-May-24 03:59N 40°47' W 073°59'0 0.0
2017-May-24 03:26N 40°47' W 073°59'0 0.0
2017-May-24 02:59N 40°47' W 073°59'0 0.0
2017-May-24 02:29N 40°47' W 073°59'0 0.0
2017-May-24 01:59N 40°47' W 073°59'0 0.0
2017-May-24 01:29N 40°47' W 073°59'0 0.0
2017-May-24 00:56N 40°47' W 073°59'0 0.0
2017-May-24 00:29N 40°47' W 073°59'0 0.0
2017-May-23 23:59N 40°47' W 073°59'0 0.0
2017-May-23 23:26N 40°47' W 073°59'0 0.0
2017-May-23 22:59N 40°47' W 073°59'0 0.0
2017-May-23 22:29N 40°47' W 073°59'0 0.0
2017-May-23 21:59N 40°47' W 073°59'0 0.0
2017-May-23 21:26N 40°47' W 073°59'0 0.0
2017-May-23 20:59N 40°47' W 073°59'0 0.0
2017-May-23 20:26N 40°47' W 073°59'0 0.0
2017-May-23 19:59N 40°47' W 073°59'1 1.4
2017-May-23 19:28N 40°48' W 073°59'0 0.0
2017-May-23 18:58N 40°48' W 073°59'0 0.0
2017-May-23 18:28N 40°48' W 073°59'0 0.0
2017-May-23 17:58N 40°48' W 073°59'1 1.5
2017-May-23 17:29N 40°47' W 073°59'0 0.0
2017-May-23 16:59N 40°47' W 073°59'0 0.0
2017-May-23 16:29N 40°47' W 073°59'0 0.0
2017-May-23 15:59N 40°47' W 073°59'1 1.3
2017-May-23 15:27N 40°47' W 073°60'0 0.7
2017-May-23 14:57N 40°47' W 073°60'1 1.4
2017-May-23 14:30N 40°48' W 073°59'0 0.4
2017-May-23 13:29N 40°47' W 073°59'0 0.0
2017-May-23 12:59N 40°47' W 073°59'0 0.0
2017-May-23 12:29N 40°47' W 073°59'0 0.0
2017-May-23 11:59N 40°47' W 073°59'0 0.0
2017-May-23 11:29N 40°47' W 073°59'0 0.0
2017-May-23 10:59N 40°47' W 073°59'0 0.0
2017-May-23 10:29N 40°47' W 073°59'0 0.0
2017-May-23 09:59N 40°47' W 073°59'0 0.0
2017-May-23 09:29N 40°47' W 073°59'0 0.0
2017-May-23 08:59N 40°47' W 073°59'0 0.0
2017-May-23 08:26N 40°47' W 073°59'0 0.0
2017-May-23 07:59N 40°47' W 073°59'0 0.0
2017-May-23 07:29N 40°47' W 073°59'0 0.0
2017-May-23 06:59N 40°47' W 073°59'0 0.0
2017-May-23 06:29N 40°47' W 073°59'0 0.0
2017-May-23 05:59N 40°47' W 073°59'0 0.0
2017-May-23 05:29N 40°47' W 073°59'0 0.0
2017-May-23 04:59N 40°47' W 073°59'0 0.0
2017-May-23 04:29N 40°47' W 073°59'0 0.0
2017-May-23 03:59N 40°47' W 073°59'0 0.0
2017-May-23 03:29N 40°47' W 073°59'0 0.0
2017-May-23 02:59N 40°47' W 073°59'0 0.0
2017-May-23 02:29N 40°47' W 073°59'0 0.0
2017-May-23 01:59N 40°47' W 073°59'0 0.0
2017-May-23 01:29N 40°47' W 073°59'0 0.0
2017-May-23 00:59N 40°47' W 073°59'0 0.0
2017-May-23 00:29N 40°47' W 073°59'0 0.0
2017-May-22 23:59N 40°47' W 073°59'0 0.0
2017-May-22 23:29N 40°47' W 073°59'0 0.0
2017-May-22 22:59N 40°47' W 073°59'0 0.0
2017-May-22 22:29N 40°47' W 073°59'0 0.0
2017-May-22 21:59N 40°47' W 073°59'0 0.0
2017-May-22 21:29N 40°47' W 073°59'0 0.0
2017-May-22 20:56N 40°47' W 073°59'0 0.0
2017-May-22 20:29N 40°47' W 073°59'0 0.0
2017-May-22 19:59N 40°47' W 073°59'1 1.1
2017-May-22 19:30N 40°48' W 073°59'0 0.5
2017-May-22 18:59N 40°48' W 073°59'0 0.2
2017-May-22 18:29N 40°48' W 073°59'1 1.7
2017-May-22 18:00N 40°47' W 073°59'0 0.5
2017-May-22 17:30N 40°47' W 073°59'0 0.0
2017-May-22 17:00N 40°47' W 073°59'0 0.0
2017-May-22 16:30N 40°47' W 073°59'0 0.0
2017-May-22 16:00N 40°47' W 073°59'1 1.2
2017-May-22 15:30N 40°47' W 073°60'0 0.7
2017-May-22 14:56N 40°47' W 073°60'1 0.6
2017-May-22 13:53N 40°47' W 074°00'1 2.3
2017-May-22 13:30N 40°47' W 073°59'0 0.0
2017-May-22 13:00N 40°47' W 073°59'0 0.0
2017-May-22 12:30N 40°47' W 073°59'0 0.0
2017-May-22 12:00N 40°47' W 073°59'0 0.0
2017-May-22 11:27N 40°47' W 073°59'0 0.0
2017-May-22 11:00N 40°47' W 073°59'0 0.0
2017-May-22 10:30N 40°47' W 073°59'0 0.0
2017-May-22 10:00N 40°47' W 073°59'0 0.0
2017-May-22 09:30N 40°47' W 073°59'0 0.0
2017-May-22 09:00N 40°47' W 073°59'0 0.0
2017-May-22 08:24N 40°47' W 073°59'0 0.0
2017-May-22 08:00N 40°47' W 073°59'0 0.0
2017-May-22 07:30N 40°47' W 073°59'0 0.0
2017-May-22 07:00N 40°47' W 073°59'0 0.0
2017-May-22 06:30N 40°47' W 073°59'0 0.0
2017-May-22 06:00N 40°47' W 073°59'0 0.0
2017-May-22 05:30N 40°47' W 073°59'0 0.0
2017-May-22 05:00N 40°47' W 073°59'0 0.0
2017-May-22 04:30N 40°47' W 073°59'0 0.0
2017-May-22 04:00N 40°47' W 073°59'0 0.0
2017-May-22 03:30N 40°47' W 073°59'0 0.0
2017-May-22 03:00N 40°47' W 073°59'0 0.0
2017-May-22 02:30N 40°47' W 073°59'0 0.0
2017-May-22 02:00N 40°47' W 073°59'0 0.0
2017-May-22 01:27N 40°47' W 073°59'0 0.0
2017-May-22 01:00N 40°47' W 073°59'0 0.0
2017-May-22 00:27N 40°47' W 073°59'0 0.0
2017-May-21 23:54N 40°47' W 073°59'0 0.0
2017-May-21 23:30N 40°47' W 073°59'0 0.0
2017-May-21 23:00N 40°47' W 073°59'0 0.0
2017-May-21 22:30N 40°47' W 073°59'0 0.0
2017-May-21 22:00N 40°47' W 073°59'0 0.0
2017-May-21 21:30N 40°47' W 073°59'0 0.0
2017-May-21 21:00N 40°47' W 073°59'0 0.0
2017-May-21 20:30N 40°47' W 073°59'0 0.0
2017-May-21 20:00N 40°47' W 073°59'0 0.0
2017-May-21 19:30N 40°47' W 073°59'0 0.0
2017-May-21 19:00N 40°47' W 073°59'0 0.0
2017-May-21 18:30N 40°47' W 073°59'0 0.0
2017-May-21 18:00N 40°47' W 073°59'0 0.0
2017-May-21 17:30N 40°47' W 073°59'0 0.0
2017-May-21 17:00N 40°47' W 073°59'0 0.0
2017-May-21 16:27N 40°47' W 073°59'0 0.0
2017-May-21 16:00N 40°47' W 073°59'0 0.0
2017-May-21 15:30N 40°47' W 073°59'0 0.0
2017-May-21 15:00N 40°47' W 073°59'0 0.0
2017-May-21 14:30N 40°47' W 073°59'0 0.0
2017-May-21 13:30N 40°47' W 073°59'0 0.0
2017-May-21 13:00N 40°47' W 073°59'0 0.0
2017-May-21 12:30N 40°47' W 073°59'0 0.0
2017-May-21 12:00N 40°47' W 073°59'0 0.0
2017-May-21 11:30N 40°47' W 073°59'0 0.0
2017-May-21 11:00N 40°47' W 073°59'0 0.0
2017-May-21 10:30N 40°47' W 073°59'0 0.0
2017-May-21 10:00N 40°47' W 073°59'0 0.0
2017-May-21 09:30N 40°47' W 073°59'0 0.0
2017-May-21 09:00N 40°47' W 073°59'0 0.0
2017-May-21 08:30N 40°47' W 073°59'0 0.0
2017-May-21 08:00N 40°47' W 073°59'0 0.0
2017-May-21 07:30N 40°47' W 073°59'0 0.0
2017-May-21 06:54N 40°47' W 073°59'0 0.0
2017-May-21 06:30N 40°47' W 073°59'0 0.0
2017-May-21 06:00N 40°47' W 073°59'0 0.0
2017-May-21 05:30N 40°47' W 073°59'0 0.0
2017-May-21 05:00N 40°47' W 073°59'0 0.0
2017-May-21 04:30N 40°47' W 073°59'0 0.0
2017-May-21 04:00N 40°47' W 073°59'0 0.0
2017-May-21 03:27N 40°47' W 073°59'0 0.0
2017-May-21 03:00N 40°47' W 073°59'0 0.0
2017-May-21 02:24N 40°47' W 073°59'0 0.0
2017-May-21 02:00N 40°47' W 073°59'0 0.0
2017-May-21 01:30N 40°47' W 073°59'0 0.0
2017-May-21 01:00N 40°47' W 073°59'0 0.0
2017-May-21 00:30N 40°47' W 073°59'0 0.0
2017-May-21 00:00N 40°47' W 073°59'0 0.0
2017-May-20 23:30N 40°47' W 073°59'0 0.0
2017-May-20 23:00N 40°47' W 073°59'0 0.0
2017-May-20 22:30N 40°47' W 073°59'0 0.0
2017-May-20 22:00N 40°47' W 073°59'0 0.0
2017-May-20 21:30N 40°47' W 073°59'0 0.0
2017-May-20 21:00N 40°47' W 073°59'0 0.0
2017-May-20 20:30N 40°47' W 073°59'0 0.0
2017-May-20 20:00N 40°47' W 073°59'0 0.0
2017-May-20 19:30N 40°47' W 073°59'0 0.0
2017-May-20 19:00N 40°47' W 073°59'0 0.0
2017-May-20 18:30N 40°47' W 073°59'0 0.0
2017-May-20 18:00N 40°47' W 073°59'0 0.0
2017-May-20 17:30N 40°47' W 073°59'0 0.0
2017-May-20 17:00N 40°47' W 073°59'0 0.0
2017-May-20 16:30N 40°47' W 073°59'0 0.0
2017-May-20 16:00N 40°47' W 073°59'0 0.0
2017-May-20 15:30N 40°47' W 073°59'0 0.0
2017-May-20 15:00N 40°47' W 073°59'0 0.0
2017-May-20 14:27N 40°47' W 073°59'0 0.0
2017-May-20 13:30N 40°47' W 073°59'0 0.0
2017-May-20 13:00N 40°47' W 073°59'0 0.0
2017-May-20 12:30N 40°47' W 073°59'0 0.0
2017-May-20 12:00N 40°47' W 073°59'0 0.0
2017-May-20 11:27N 40°47' W 073°59'0 0.0
2017-May-20 10:57N 40°47' W 073°59'0 0.0
2017-May-20 10:27N 40°47' W 073°59'0 0.0
2017-May-20 10:00N 40°47' W 073°59'0 0.0
2017-May-20 09:30N 40°47' W 073°59'0 0.0
2017-May-20 09:00N 40°47' W 073°59'0 0.0
2017-May-20 08:30N 40°47' W 073°59'0 0.0
2017-May-20 08:00N 40°47' W 073°59'0 0.0
2017-May-20 07:30N 40°47' W 073°59'0 0.0
2017-May-20 07:00N 40°47' W 073°59'0 0.0
2017-May-20 06:27N 40°47' W 073°59'0 0.0
2017-May-20 06:00N 40°47' W 073°59'0 0.0
2017-May-20 05:30N 40°47' W 073°59'0 0.0
2017-May-20 05:00N 40°47' W 073°59'0 0.0
2017-May-20 04:30N 40°47' W 073°59'0 0.0
2017-May-20 04:00N 40°47' W 073°59'0 0.0
2017-May-20 03:30N 40°47' W 073°59'0 0.0
2017-May-20 03:00N 40°47' W 073°59'0 0.0
2017-May-20 02:30N 40°47' W 073°59'0 0.0
2017-May-20 02:00N 40°47' W 073°59'0 0.0
2017-May-20 01:30N 40°47' W 073°59'0 0.0
2017-May-20 01:00N 40°47' W 073°59'0 0.0
2017-May-20 00:30N 40°47' W 073°59'0 0.0
2017-May-20 00:00N 40°47' W 073°59'0 0.0
2017-May-19 23:30N 40°47' W 073°59'0 0.0
2017-May-19 23:00N 40°47' W 073°59'0 0.0
2017-May-19 22:30N 40°47' W 073°59'0 0.0
2017-May-19 22:00N 40°47' W 073°59'0 0.0
2017-May-19 21:30N 40°47' W 073°59'0 0.0
2017-May-19 21:00N 40°47' W 073°59'0 0.0
2017-May-19 20:30N 40°47' W 073°59'0 0.0
2017-May-19 20:00N 40°47' W 073°59'0 0.2
2017-May-19 19:30N 40°47' W 073°59'1 1.4
2017-May-19 18:58N 40°48' W 073°59'1 2.4
2017-May-19 18:31N 40°49' W 073°58'2 3.7
2017-May-19 18:00N 40°47' W 073°60'0 0.6
2017-May-19 17:30N 40°47' W 073°59'0 0.2
2017-May-19 16:59N 40°47' W 073°59'0 0.0
2017-May-19 16:29N 40°47' W 073°59'0 0.0
2017-May-19 15:59N 40°47' W 073°59'0 0.7
2017-May-19 15:30N 40°47' W 073°60'0 0.5
2017-May-19 15:00N 40°47' W 073°60'0 0.3
2017-May-19 13:57N 40°47' W 073°59'0 0.0
2017-May-19 13:30N 40°47' W 073°59'0 0.0
2017-May-19 13:00N 40°47' W 073°59'0 0.0
2017-May-19 12:30N 40°47' W 073°59'0 0.0
2017-May-19 11:57N 40°47' W 073°59'0 0.0
2017-May-19 11:30N 40°47' W 073°59'0 0.0
2017-May-19 11:00N 40°47' W 073°59'0 0.0
2017-May-19 10:30N 40°47' W 073°59'0 0.0
2017-May-19 10:00N 40°47' W 073°59'0 0.0
2017-May-19 09:30N 40°47' W 073°59'0 0.0
2017-May-19 09:00N 40°47' W 073°59'0 0.0
2017-May-19 08:30N 40°47' W 073°59'0 0.0
2017-May-19 07:57N 40°47' W 073°59'0 0.0
2017-May-19 07:30N 40°47' W 073°59'0 0.0
2017-May-19 07:00N 40°47' W 073°59'0 0.0
2017-May-19 06:30N 40°47' W 073°59'0 0.0
2017-May-19 06:00N 40°47' W 073°59'0 0.0
2017-May-19 05:30N 40°47' W 073°59'0 0.0
2017-May-19 04:57N 40°47' W 073°59'0 0.0
2017-May-19 04:30N 40°47' W 073°59'0 0.0
2017-May-19 04:00N 40°47' W 073°59'0 0.0
2017-May-19 03:30N 40°47' W 073°59'0 0.0
2017-May-19 03:00N 40°47' W 073°59'0 0.0
2017-May-19 02:30N 40°47' W 073°59'0 0.0
2017-May-19 02:00N 40°47' W 073°59'0 0.0
2017-May-19 01:30N 40°47' W 073°59'0 0.0
2017-May-19 00:57N 40°47' W 073°59'0 0.0
2017-May-19 00:27N 40°47' W 073°59'0 0.0
2017-May-19 00:00N 40°47' W 073°59'0 0.0
2017-May-18 23:27N 40°47' W 073°59'0 0.0
2017-May-18 23:00N 40°47' W 073°59'0 0.0
2017-May-18 22:30N 40°47' W 073°59'0 0.0
2017-May-18 22:00N 40°47' W 073°59'0 0.0
2017-May-18 21:30N 40°47' W 073°59'0 0.0
2017-May-18 20:57N 40°47' W 073°59'0 0.0
2017-May-18 20:30N 40°47' W 073°59'0 0.0
2017-May-18 19:57N 40°47' W 073°59'0 0.1
2017-May-18 19:30N 40°47' W 073°59'2 4.3
2017-May-18 18:59N 40°49' W 073°58'2 4.6
2017-May-18 18:29N 40°51' W 073°57'  
Track history (hours):
 
Tides and Currents Weather Stations Pressure Air Temp Water Temp Dewpoint Dewpoint Depression Visibility Wind Speed Wind Dir Waves Ship Positions

Mystic Whaler (United States)

Ship's website: http://www.mysticwhalercruises.com/

Owner: MYSTIC WHALER CRUISES INC, MYSTIC, CT. More information available from US FCC via Universal Licensing System and Coast Guard Vessel Documentation Center.

Last reported at 2017-May-28 07:59 UTC. Time now 2017-May-28 08:22 UTC.
Position N 40°47' W 073°59'.

Length 34 m; draft 1.8 m.

Type: Sailing vessel. MMSI: 367048590.

Date/timePositionNaut miles runAvg speedWind from/ knotsBaromVisibWave heightAir tempDewpointWater temp
2017-May-28 07:59N 40°47' W 073°59'0 0.0
2017-May-28 07:29N 40°47' W 073°59'0 0.0
2017-May-28 06:59N 40°47' W 073°59'0 0.0
2017-May-28 06:29N 40°47' W 073°59'0 0.0
2017-May-28 05:59N 40°47' W 073°59'0 0.0
2017-May-28 05:29N 40°47' W 073°59'0 0.0
2017-May-28 04:59N 40°47' W 073°59'0 0.0
2017-May-28 04:29N 40°47' W 073°59'0 0.0
2017-May-28 03:50N 40°47' W 073°59'0 0.0
2017-May-28 03:29N 40°47' W 073°59'0 0.0
2017-May-28 02:59N 40°47' W 073°59'0 0.0
2017-May-28 02:29N 40°47' W 073°59'0 0.0
2017-May-28 01:59N 40°47' W 073°59'0 0.0
2017-May-28 01:29N 40°47' W 073°59'0 0.0
2017-May-28 00:59N 40°47' W 073°59'0 0.0
2017-May-28 00:29N 40°47' W 073°59'0 0.0
2017-May-27 23:59N 40°47' W 073°59'0 0.0
2017-May-27 23:29N 40°47' W 073°59'0 0.0
2017-May-27 22:59N 40°47' W 073°59'0 0.0
2017-May-27 22:29N 40°47' W 073°59'0 0.0
2017-May-27 21:59N 40°47' W 073°59'0 0.0
2017-May-27 21:29N 40°47' W 073°59'0 0.0
2017-May-27 20:59N 40°47' W 073°59'0 0.0
2017-May-27 20:29N 40°47' W 073°59'0 0.5
2017-May-27 19:59N 40°47' W 073°59'0 0.4
2017-May-27 19:30N 40°47' W 073°59'2 3.3
2017-May-27 18:59N 40°49' W 073°58'2 3.3
2017-May-27 18:30N 40°50' W 073°57'2 2.7
2017-May-27 17:57N 40°52' W 073°57'1 2.1
2017-May-27 17:30N 40°52' W 073°56'0 0.5
2017-May-27 16:35N 40°53' W 073°57'0 1.9
2017-May-27 16:28N 40°53' W 073°57'1 2.2
2017-May-27 15:59N 40°52' W 073°57'2 3.9
2017-May-27 15:30N 40°50' W 073°58'3 5.4
2017-May-27 15:00N 40°47' W 073°59'0 0.0
2017-May-27 14:30N 40°47' W 073°59'0 0.0
2017-May-27 13:30N 40°47' W 073°59'0 0.0
2017-May-27 13:00N 40°47' W 073°59'0 0.0
2017-May-27 12:30N 40°47' W 073°59'0 0.0
2017-May-27 12:00N 40°47' W 073°59'0 0.0
2017-May-27 11:30N 40°47' W 073°59'0 0.0
2017-May-27 11:00N 40°47' W 073°59'0 0.0
2017-May-27 10:24N 40°47' W 073°59'0 0.0
2017-May-27 09:57N 40°47' W 073°59'0 0.0
2017-May-27 09:30N 40°47' W 073°59'0 0.0
2017-May-27 09:00N 40°47' W 073°59'0 0.0
2017-May-27 08:30N 40°47' W 073°59'0 0.0
2017-May-27 08:00N 40°47' W 073°59'0 0.0
2017-May-27 07:30N 40°47' W 073°59'0 0.0
2017-May-27 07:00N 40°47' W 073°59'0 0.0
2017-May-27 06:30N 40°47' W 073°59'0 0.0
2017-May-27 06:00N 40°47' W 073°59'0 0.0
2017-May-27 05:30N 40°47' W 073°59'0 0.0
2017-May-27 05:00N 40°47' W 073°59'0 0.0
2017-May-27 04:24N 40°47' W 073°59'0 0.0
2017-May-27 04:00N 40°47' W 073°59'0 0.0
2017-May-27 03:30N 40°47' W 073°59'0 0.0
2017-May-27 03:00N 40°47' W 073°59'0 0.0
2017-May-27 02:30N 40°47' W 073°59'0 0.0
2017-May-27 02:00N 40°47' W 073°59'0 0.0
2017-May-27 01:30N 40°47' W 073°59'0 0.0
2017-May-27 00:54N 40°47' W 073°59'0 0.0
2017-May-27 00:30N 40°47' W 073°59'0 0.0
2017-May-27 00:00N 40°47' W 073°59'0 0.0
2017-May-26 23:30N 40°47' W 073°59'0 0.0
2017-May-26 23:00N 40°47' W 073°59'0 0.0
2017-May-26 22:30N 40°47' W 073°59'0 0.0
2017-May-26 22:00N 40°47' W 073°59'0 0.0
2017-May-26 21:24N 40°47' W 073°59'0 0.0
2017-May-26 20:54N 40°47' W 073°59'0 0.0
2017-May-26 20:30N 40°47' W 073°59'0 0.0
2017-May-26 20:00N 40°47' W 073°59'0 0.0
2017-May-26 19:30N 40°47' W 073°59'0 0.0
2017-May-26 18:57N 40°47' W 073°59'1 2.8
2017-May-26 18:30N 40°48' W 073°59'1 2.2
2017-May-26 18:00N 40°47' W 073°59'0 0.7
2017-May-26 17:27N 40°47' W 073°59'0 0.0
2017-May-26 17:00N 40°47' W 073°59'0 0.0
2017-May-26 16:30N 40°47' W 073°59'0 0.0
2017-May-26 16:00N 40°47' W 073°59'0 0.6
2017-May-26 15:30N 40°47' W 073°59'0 0.1
2017-May-26 14:59N 40°47' W 073°59'1 2.4
2017-May-26 14:30N 40°47' W 074°00'1 0.9
2017-May-26 13:28N 40°47' W 073°59'0 0.0
2017-May-26 12:58N 40°47' W 073°59'0 0.0
2017-May-26 12:28N 40°47' W 073°59'0 0.0
2017-May-26 11:58N 40°47' W 073°59'0 0.0
2017-May-26 11:28N 40°47' W 073°59'0 0.0
2017-May-26 10:52N 40°47' W 073°59'0 0.0
2017-May-26 10:28N 40°47' W 073°59'0 0.0
2017-May-26 09:58N 40°47' W 073°59'0 0.0
2017-May-26 09:28N 40°47' W 073°59'0 0.0
2017-May-26 08:58N 40°47' W 073°59'0 0.0
2017-May-26 08:25N 40°47' W 073°59'0 0.0
2017-May-26 07:58N 40°47' W 073°59'0 0.0
2017-May-26 07:28N 40°47' W 073°59'0 0.0
2017-May-26 06:58N 40°47' W 073°59'0 0.0
2017-May-26 06:28N 40°47' W 073°59'0 0.0
2017-May-26 05:58N 40°47' W 073°59'0 0.0
2017-May-26 05:28N 40°47' W 073°59'0 0.0
2017-May-26 04:58N 40°47' W 073°59'0 0.0
2017-May-26 04:28N 40°47' W 073°59'0 0.0
2017-May-26 03:58N 40°47' W 073°59'0 0.0
2017-May-26 03:28N 40°47' W 073°59'0 0.0
2017-May-26 02:58N 40°47' W 073°59'0 0.0
2017-May-26 02:28N 40°47' W 073°59'0 0.0
2017-May-26 01:58N 40°47' W 073°59'0 0.0
2017-May-26 01:28N 40°47' W 073°59'0 0.0
2017-May-26 00:58N 40°47' W 073°59'0 0.0
2017-May-26 00:28N 40°47' W 073°59'0 0.0
2017-May-25 23:58N 40°47' W 073°59'0 0.0
2017-May-25 23:28N 40°47' W 073°59'0 0.0
2017-May-25 22:58N 40°47' W 073°59'0 0.0
2017-May-25 22:25N 40°47' W 073°59'0 0.0
2017-May-25 21:58N 40°47' W 073°59'0 0.0
2017-May-25 21:28N 40°47' W 073°59'0 0.0
2017-May-25 20:58N 40°47' W 073°59'0 0.0
2017-May-25 20:28N 40°47' W 073°59'0 0.0
2017-May-25 19:58N 40°47' W 073°59'1 1.6
2017-May-25 19:30N 40°48' W 073°59'0 0.0
2017-May-25 19:00N 40°48' W 073°59'0 0.0
2017-May-25 18:30N 40°48' W 073°59'0 0.0
2017-May-25 18:00N 40°48' W 073°59'1 1.2
2017-May-25 17:24N 40°47' W 073°59'0 0.0
2017-May-25 17:00N 40°47' W 073°59'0 0.0
2017-May-25 16:30N 40°47' W 073°59'0 0.0
2017-May-25 16:00N 40°47' W 073°59'1 1.0
2017-May-25 15:30N 40°47' W 073°60'1 2.0
2017-May-25 14:59N 40°48' W 073°59'0 0.2
2017-May-25 13:59N 40°48' W 073°59'1 1.4
2017-May-25 13:29N 40°47' W 073°59'0 0.0
2017-May-25 12:56N 40°47' W 073°59'0 0.0
2017-May-25 12:29N 40°47' W 073°59'0 0.0
2017-May-25 11:59N 40°47' W 073°59'0 0.0
2017-May-25 11:26N 40°47' W 073°59'0 0.0
2017-May-25 10:59N 40°47' W 073°59'0 0.0
2017-May-25 10:29N 40°47' W 073°59'0 0.0
2017-May-25 09:59N 40°47' W 073°59'0 0.0
2017-May-25 09:26N 40°47' W 073°59'0 0.0
2017-May-25 08:59N 40°47' W 073°59'0 0.0
2017-May-25 08:29N 40°47' W 073°59'0 0.0
2017-May-25 07:59N 40°47' W 073°59'0 0.0
2017-May-25 07:29N 40°47' W 073°59'0 0.0
2017-May-25 06:59N 40°47' W 073°59'0 0.0
2017-May-25 06:29N 40°47' W 073°59'0 0.0
2017-May-25 05:59N 40°47' W 073°59'0 0.0
2017-May-25 05:29N 40°47' W 073°59'0 0.0
2017-May-25 04:59N 40°47' W 073°59'0 0.0
2017-May-25 04:26N 40°47' W 073°59'0 0.0
2017-May-25 03:59N 40°47' W 073°59'0 0.0
2017-May-25 03:29N 40°47' W 073°59'0 0.0
2017-May-25 02:59N 40°47' W 073°59'0 0.0
2017-May-25 02:29N 40°47' W 073°59'0 0.0
2017-May-25 01:56N 40°47' W 073°59'0 0.0
2017-May-25 01:29N 40°47' W 073°59'0 0.0
2017-May-25 00:59N 40°47' W 073°59'0 0.0
2017-May-25 00:29N 40°47' W 073°59'0 0.0
2017-May-24 23:53N 40°47' W 073°59'0 0.0
2017-May-24 23:29N 40°47' W 073°59'0 0.0
2017-May-24 22:59N 40°47' W 073°59'0 0.0
2017-May-24 22:29N 40°47' W 073°59'0 0.0
2017-May-24 21:56N 40°47' W 073°59'0 0.0
2017-May-24 21:29N 40°47' W 073°59'0 0.0
2017-May-24 20:59N 40°47' W 073°59'0 0.0
2017-May-24 20:29N 40°47' W 073°59'0 0.0
2017-May-24 19:59N 40°47' W 073°59'0 0.0
2017-May-24 19:23N 40°47' W 073°59'0 0.0
2017-May-24 18:56N 40°47' W 073°59'0 0.0
2017-May-24 18:29N 40°47' W 073°59'0 0.0
2017-May-24 17:59N 40°47' W 073°59'1 2.9
2017-May-24 17:29N 40°49' W 073°58'0 0.6
2017-May-24 16:58N 40°48' W 073°58'1 2.4
2017-May-24 16:30N 40°47' W 073°59'0 0.0
2017-May-24 16:00N 40°47' W 073°59'0 0.0
2017-May-24 15:30N 40°47' W 073°59'0 0.0
2017-May-24 14:57N 40°47' W 073°59'0 0.3
2017-May-24 14:29N 40°47' W 073°59'0 0.1
2017-May-24 13:29N 40°47' W 073°59'0 0.0
2017-May-24 12:56N 40°47' W 073°59'0 0.0
2017-May-24 12:29N 40°47' W 073°59'0 0.0
2017-May-24 11:59N 40°47' W 073°59'0 0.0
2017-May-24 11:29N 40°47' W 073°59'0 0.0
2017-May-24 10:59N 40°47' W 073°59'0 0.0
2017-May-24 10:29N 40°47' W 073°59'0 0.0
2017-May-24 09:59N 40°47' W 073°59'0 0.0
2017-May-24 09:29N 40°47' W 073°59'0 0.0
2017-May-24 08:59N 40°47' W 073°59'0 0.0
2017-May-24 08:29N 40°47' W 073°59'0 0.0
2017-May-24 07:56N 40°47' W 073°59'0 0.0
2017-May-24 07:29N 40°47' W 073°59'0 0.0
2017-May-24 06:59N 40°47' W 073°59'0 0.0
2017-May-24 06:29N 40°47' W 073°59'0 0.0
2017-May-24 05:56N 40°47' W 073°59'0 0.0
2017-May-24 05:29N 40°47' W 073°59'0 0.0
2017-May-24 04:59N 40°47' W 073°59'0 0.0
2017-May-24 04:29N 40°47' W 073°59'0 0.0
2017-May-24 03:59N 40°47' W 073°59'0 0.0
2017-May-24 03:26N 40°47' W 073°59'0 0.0
2017-May-24 02:59N 40°47' W 073°59'0 0.0
2017-May-24 02:29N 40°47' W 073°59'0 0.0
2017-May-24 01:59N 40°47' W 073°59'0 0.0
2017-May-24 01:29N 40°47' W 073°59'0 0.0
2017-May-24 00:56N 40°47' W 073°59'0 0.0
2017-May-24 00:29N 40°47' W 073°59'0 0.0
2017-May-23 23:59N 40°47' W 073°59'0 0.0
2017-May-23 23:26N 40°47' W 073°59'0 0.0
2017-May-23 22:59N 40°47' W 073°59'0 0.0
2017-May-23 22:29N 40°47' W 073°59'0 0.0
2017-May-23 21:59N 40°47' W 073°59'0 0.0
2017-May-23 21:26N 40°47' W 073°59'0 0.0
2017-May-23 20:59N 40°47' W 073°59'0 0.0
2017-May-23 20:26N 40°47' W 073°59'0 0.0
2017-May-23 19:59N 40°47' W 073°59'1 1.4
2017-May-23 19:28N 40°48' W 073°59'0 0.0
2017-May-23 18:58N 40°48' W 073°59'0 0.0
2017-May-23 18:28N 40°48' W 073°59'0 0.0
2017-May-23 17:58N 40°48' W 073°59'1 1.5
2017-May-23 17:29N 40°47' W 073°59'0 0.0
2017-May-23 16:59N 40°47' W 073°59'0 0.0
2017-May-23 16:29N 40°47' W 073°59'0 0.0
2017-May-23 15:59N 40°47' W 073°59'1 1.3
2017-May-23 15:27N 40°47' W 073°60'0 0.7
2017-May-23 14:57N 40°47' W 073°60'1 1.4
2017-May-23 14:30N 40°48' W 073°59'0 0.4
2017-May-23 13:29N 40°47' W 073°59'0 0.0
2017-May-23 12:59N 40°47' W 073°59'0 0.0
2017-May-23 12:29N 40°47' W 073°59'0 0.0
2017-May-23 11:59N 40°47' W 073°59'0 0.0
2017-May-23 11:29N 40°47' W 073°59'0 0.0
2017-May-23 10:59N 40°47' W 073°59'0 0.0
2017-May-23 10:29N 40°47' W 073°59'0 0.0
2017-May-23 09:59N 40°47' W 073°59'0 0.0
2017-May-23 09:29N 40°47' W 073°59'0 0.0
2017-May-23 08:59N 40°47' W 073°59'0 0.0
2017-May-23 08:26N 40°47' W 073°59'0 0.0
2017-May-23 07:59N 40°47' W 073°59'0 0.0
2017-May-23 07:29N 40°47' W 073°59'0 0.0
2017-May-23 06:59N 40°47' W 073°59'0 0.0
2017-May-23 06:29N 40°47' W 073°59'0 0.0
2017-May-23 05:59N 40°47' W 073°59'0 0.0
2017-May-23 05:29N 40°47' W 073°59'0 0.0
2017-May-23 04:59N 40°47' W 073°59'0 0.0
2017-May-23 04:29N 40°47' W 073°59'0 0.0
2017-May-23 03:59N 40°47' W 073°59'0 0.0
2017-May-23 03:29N 40°47' W 073°59'0 0.0
2017-May-23 02:59N 40°47' W 073°59'0 0.0
2017-May-23 02:29N 40°47' W 073°59'0 0.0
2017-May-23 01:59N 40°47' W 073°59'0 0.0
2017-May-23 01:29N 40°47' W 073°59'0 0.0
2017-May-23 00:59N 40°47' W 073°59'0 0.0
2017-May-23 00:29N 40°47' W 073°59'0 0.0
2017-May-22 23:59N 40°47' W 073°59'0 0.0
2017-May-22 23:29N 40°47' W 073°59'0 0.0
2017-May-22 22:59N 40°47' W 073°59'0 0.0
2017-May-22 22:29N 40°47' W 073°59'0 0.0
2017-May-22 21:59N 40°47' W 073°59'0 0.0
2017-May-22 21:29N 40°47' W 073°59'0 0.0
2017-May-22 20:56N 40°47' W 073°59'0 0.0
2017-May-22 20:29N 40°47' W 073°59'0 0.0
2017-May-22 19:59N 40°47' W 073°59'1 1.1
2017-May-22 19:30N 40°48' W 073°59'0 0.5
2017-May-22 18:59N 40°48' W 073°59'0 0.2
2017-May-22 18:29N 40°48' W 073°59'1 1.7
2017-May-22 18:00N 40°47' W 073°59'0 0.5
2017-May-22 17:30N 40°47' W 073°59'0 0.0
2017-May-22 17:00N 40°47' W 073°59'0 0.0
2017-May-22 16:30N 40°47' W 073°59'0 0.0
2017-May-22 16:00N 40°47' W 073°59'1 1.2
2017-May-22 15:30N 40°47' W 073°60'0 0.7
2017-May-22 14:56N 40°47' W 073°60'1 0.6
2017-May-22 13:53N 40°47' W 074°00'1 2.3
2017-May-22 13:30N 40°47' W 073°59'0 0.0
2017-May-22 13:00N 40°47' W 073°59'0 0.0
2017-May-22 12:30N 40°47' W 073°59'0 0.0
2017-May-22 12:00N 40°47' W 073°59'0 0.0
2017-May-22 11:27N 40°47' W 073°59'0 0.0
2017-May-22 11:00N 40°47' W 073°59'0 0.0
2017-May-22 10:30N 40°47' W 073°59'0 0.0
2017-May-22 10:00N 40°47' W 073°59'0 0.0
2017-May-22 09:30N 40°47' W 073°59'0 0.0
2017-May-22 09:00N 40°47' W 073°59'0 0.0
2017-May-22 08:24N 40°47' W 073°59'0 0.0
2017-May-22 08:00N 40°47' W 073°59'0 0.0
2017-May-22 07:30N 40°47' W 073°59'0 0.0
2017-May-22 07:00N 40°47' W 073°59'0 0.0
2017-May-22 06:30N 40°47' W 073°59'0 0.0
2017-May-22 06:00N 40°47' W 073°59'0 0.0
2017-May-22 05:30N 40°47' W 073°59'0 0.0
2017-May-22 05:00N 40°47' W 073°59'0 0.0
2017-May-22 04:30N 40°47' W 073°59'0 0.0
2017-May-22 04:00N 40°47' W 073°59'0 0.0
2017-May-22 03:30N 40°47' W 073°59'0 0.0
2017-May-22 03:00N 40°47' W 073°59'0 0.0
2017-May-22 02:30N 40°47' W 073°59'0 0.0
2017-May-22 02:00N 40°47' W 073°59'0 0.0
2017-May-22 01:27N 40°47' W 073°59'0 0.0
2017-May-22 01:00N 40°47' W 073°59'0 0.0
2017-May-22 00:27N 40°47' W 073°59'0 0.0
2017-May-21 23:54N 40°47' W 073°59'0 0.0
2017-May-21 23:30N 40°47' W 073°59'0 0.0
2017-May-21 23:00N 40°47' W 073°59'0 0.0
2017-May-21 22:30N 40°47' W 073°59'0 0.0
2017-May-21 22:00N 40°47' W 073°59'0 0.0
2017-May-21 21:30N 40°47' W 073°59'0 0.0
2017-May-21 21:00N 40°47' W 073°59'0 0.0
2017-May-21 20:30N 40°47' W 073°59'0 0.0
2017-May-21 20:00N 40°47' W 073°59'0 0.0
2017-May-21 19:30N 40°47' W 073°59'0 0.0
2017-May-21 19:00N 40°47' W 073°59'0 0.0
2017-May-21 18:30N 40°47' W 073°59'0 0.0
2017-May-21 18:00N 40°47' W 073°59'0 0.0
2017-May-21 17:30N 40°47' W 073°59'0 0.0
2017-May-21 17:00N 40°47' W 073°59'0 0.0
2017-May-21 16:27N 40°47' W 073°59'0 0.0
2017-May-21 16:00N 40°47' W 073°59'0 0.0
2017-May-21 15:30N 40°47' W 073°59'0 0.0
2017-May-21 15:00N 40°47' W 073°59'0 0.0
2017-May-21 14:30N 40°47' W 073°59'0 0.0
2017-May-21 13:30N 40°47' W 073°59'0 0.0
2017-May-21 13:00N 40°47' W 073°59'0 0.0
2017-May-21 12:30N 40°47' W 073°59'0 0.0
2017-May-21 12:00N 40°47' W 073°59'0 0.0
2017-May-21 11:30N 40°47' W 073°59'0 0.0
2017-May-21 11:00N 40°47' W 073°59'0 0.0
2017-May-21 10:30N 40°47' W 073°59'0 0.0
2017-May-21 10:00N 40°47' W 073°59'0 0.0
2017-May-21 09:30N 40°47' W 073°59'0 0.0
2017-May-21 09:00N 40°47' W 073°59'0 0.0
2017-May-21 08:30N 40°47' W 073°59'0 0.0
2017-May-21 08:00N 40°47' W 073°59'0 0.0
2017-May-21 07:30N 40°47' W 073°59'0 0.0
2017-May-21 06:54N 40°47' W 073°59'0 0.0
2017-May-21 06:30N 40°47' W 073°59'0 0.0
2017-May-21 06:00N 40°47' W 073°59'0 0.0
2017-May-21 05:30N 40°47' W 073°59'0 0.0
2017-May-21 05:00N 40°47' W 073°59'0 0.0
2017-May-21 04:30N 40°47' W 073°59'0 0.0
2017-May-21 04:00N 40°47' W 073°59'0 0.0
2017-May-21 03:27N 40°47' W 073°59'0 0.0
2017-May-21 03:00N 40°47' W 073°59'0 0.0
2017-May-21 02:24N 40°47' W 073°59'0 0.0
2017-May-21 02:00N 40°47' W 073°59'0 0.0
2017-May-21 01:30N 40°47' W 073°59'0 0.0
2017-May-21 01:00N 40°47' W 073°59'0 0.0
2017-May-21 00:30N 40°47' W 073°59'0 0.0
2017-May-21 00:00N 40°47' W 073°59'0 0.0
2017-May-20 23:30N 40°47' W 073°59'0 0.0
2017-May-20 23:00N 40°47' W 073°59'0 0.0
2017-May-20 22:30N 40°47' W 073°59'0 0.0
2017-May-20 22:00N 40°47' W 073°59'0 0.0
2017-May-20 21:30N 40°47' W 073°59'0 0.0
2017-May-20 21:00N 40°47' W 073°59'0 0.0
2017-May-20 20:30N 40°47' W 073°59'0 0.0
2017-May-20 20:00N 40°47' W 073°59'0 0.0
2017-May-20 19:30N 40°47' W 073°59'0 0.0
2017-May-20 19:00N 40°47' W 073°59'0 0.0
2017-May-20 18:30N 40°47' W 073°59'0 0.0
2017-May-20 18:00N 40°47' W 073°59'0 0.0
2017-May-20 17:30N 40°47' W 073°59'0 0.0
2017-May-20 17:00N 40°47' W 073°59'0 0.0
2017-May-20 16:30N 40°47' W 073°59'0 0.0
2017-May-20 16:00N 40°47' W 073°59'0 0.0
2017-May-20 15:30N 40°47' W 073°59'0 0.0
2017-May-20 15:00N 40°47' W 073°59'0 0.0
2017-May-20 14:27N 40°47' W 073°59'0 0.0
2017-May-20 13:30N 40°47' W 073°59'0 0.0
2017-May-20 13:00N 40°47' W 073°59'0 0.0
2017-May-20 12:30N 40°47' W 073°59'0 0.0
2017-May-20 12:00N 40°47' W 073°59'0 0.0
2017-May-20 11:27N 40°47' W 073°59'0 0.0
2017-May-20 10:57N 40°47' W 073°59'0 0.0
2017-May-20 10:27N 40°47' W 073°59'0 0.0
2017-May-20 10:00N 40°47' W 073°59'0 0.0
2017-May-20 09:30N 40°47' W 073°59'0 0.0
2017-May-20 09:00N 40°47' W 073°59'0 0.0
2017-May-20 08:30N 40°47' W 073°59'0 0.0
2017-May-20 08:00N 40°47' W 073°59'0 0.0
2017-May-20 07:30N 40°47' W 073°59'0 0.0
2017-May-20 07:00N 40°47' W 073°59'0 0.0
2017-May-20 06:27N 40°47' W 073°59'0 0.0
2017-May-20 06:00N 40°47' W 073°59'0 0.0
2017-May-20 05:30N 40°47' W 073°59'0 0.0
2017-May-20 05:00N 40°47' W 073°59'0 0.0
2017-May-20 04:30N 40°47' W 073°59'0 0.0
2017-May-20 04:00N 40°47' W 073°59'0 0.0
2017-May-20 03:30N 40°47' W 073°59'0 0.0
2017-May-20 03:00N 40°47' W 073°59'0 0.0
2017-May-20 02:30N 40°47' W 073°59'0 0.0
2017-May-20 02:00N 40°47' W 073°59'0 0.0
2017-May-20 01:30N 40°47' W 073°59'0 0.0
2017-May-20 01:00N 40°47' W 073°59'0 0.0
2017-May-20 00:30N 40°47' W 073°59'0 0.0
2017-May-20 00:00N 40°47' W 073°59'0 0.0
2017-May-19 23:30N 40°47' W 073°59'0 0.0
2017-May-19 23:00N 40°47' W 073°59'0 0.0
2017-May-19 22:30N 40°47' W 073°59'0 0.0
2017-May-19 22:00N 40°47' W 073°59'0 0.0
2017-May-19 21:30N 40°47' W 073°59'0 0.0
2017-May-19 21:00N 40°47' W 073°59'0 0.0
2017-May-19 20:30N 40°47' W 073°59'0 0.0
2017-May-19 20:00N 40°47' W 073°59'0 0.2
2017-May-19 19:30N 40°47' W 073°59'1 1.4
2017-May-19 18:58N 40°48' W 073°59'1 2.4
2017-May-19 18:31N 40°49' W 073°58'2 3.7
2017-May-19 18:00N 40°47' W 073°60'0 0.6
2017-May-19 17:30N 40°47' W 073°59'0 0.2
2017-May-19 16:59N 40°47' W 073°59'0 0.0
2017-May-19 16:29N 40°47' W 073°59'0 0.0
2017-May-19 15:59N 40°47' W 073°59'0 0.7
2017-May-19 15:30N 40°47' W 073°60'0 0.5
2017-May-19 15:00N 40°47' W 073°60'0 0.3
2017-May-19 13:57N 40°47' W 073°59'0 0.0
2017-May-19 13:30N 40°47' W 073°59'0 0.0
2017-May-19 13:00N 40°47' W 073°59'0 0.0
2017-May-19 12:30N 40°47' W 073°59'0 0.0
2017-May-19 11:57N 40°47' W 073°59'0 0.0
2017-May-19 11:30N 40°47' W 073°59'0 0.0
2017-May-19 11:00N 40°47' W 073°59'0 0.0
2017-May-19 10:30N 40°47' W 073°59'0 0.0
2017-May-19 10:00N 40°47' W 073°59'0 0.0
2017-May-19 09:30N 40°47' W 073°59'0 0.0
2017-May-19 09:00N 40°47' W 073°59'0 0.0
2017-May-19 08:30N 40°47' W 073°59'0 0.0
2017-May-19 07:57N 40°47' W 073°59'0 0.0
2017-May-19 07:30N 40°47' W 073°59'0 0.0
2017-May-19 07:00N 40°47' W 073°59'0 0.0
2017-May-19 06:30N 40°47' W 073°59'0 0.0
2017-May-19 06:00N 40°47' W 073°59'0 0.0
2017-May-19 05:30N 40°47' W 073°59'0 0.0
2017-May-19 04:57N 40°47' W 073°59'0 0.0
2017-May-19 04:30N 40°47' W 073°59'0 0.0
2017-May-19 04:00N 40°47' W 073°59'0 0.0
2017-May-19 03:30N 40°47' W 073°59'0 0.0
2017-May-19 03:00N 40°47' W 073°59'0 0.0
2017-May-19 02:30N 40°47' W 073°59'0 0.0
2017-May-19 02:00N 40°47' W 073°59'0 0.0
2017-May-19 01:30N 40°47' W 073°59'0 0.0
2017-May-19 00:57N 40°47' W 073°59'0 0.0
2017-May-19 00:27N 40°47' W 073°59'0 0.0
2017-May-19 00:00N 40°47' W 073°59'0 0.0
2017-May-18 23:27N 40°47' W 073°59'0 0.0
2017-May-18 23:00N 40°47' W 073°59'0 0.0
2017-May-18 22:30N 40°47' W 073°59'0 0.0
2017-May-18 22:00N 40°47' W 073°59'0 0.0
2017-May-18 21:30N 40°47' W 073°59'0 0.0
2017-May-18 20:57N 40°47' W 073°59'0 0.0
2017-May-18 20:30N 40°47' W 073°59'0 0.0
2017-May-18 19:57N 40°47' W 073°59'0 0.1
2017-May-18 19:30N 40°47' W 073°59'2 4.3
2017-May-18 18:59N 40°49' W 073°58'2 4.6
2017-May-18 18:29N 40°51' W 073°57'  

Dump ship's entire track history